Time;durP1;ratioP1;P1;durP2;ratioP2;P2;SDS_P1;SDS_P2;PMS_P1;PMS_P2;Temp;Humidity;BMP_temperature;BMP_pressure;BME280_temperature;BME280_humidity;BME280_pressure;Samples;Min_cycle;Max_cycle;Signal;HPM_P1;HPM_P2
2022/12/08 00:02:16;;;;;;;15.65;5.45;;;;;;;8.17;100.00;100965.59;5016353;28;20086;-51
2022/12/08 00:10:09;;;;;;;15.63;6.53;;;;;;;8.27;100.00;100944.91;5015855;28;20098;-53
2022/12/08 00:12:35;;;;;;;10.87;6.50;;;;;;;8.38;100.00;100941.00;5015480;28;20034;-54
2022/12/08 00:15:00;;;;;;;11.67;6.93;;;;;;;8.42;100.00;100933.44;5016072;28;20052;-55
2022/12/08 00:17:25;;;;;;;10.53;6.70;;;;;;;8.30;100.00;100927.72;5016276;28;20110;-49
2022/12/08 00:19:51;;;;;;;19.58;7.45;;;;;;;8.46;100.00;100926.78;5016033;28;20042;-53
2022/12/08 00:22:17;;;;;;;14.53;8.53;;;;;;;7.92;100.00;100917.81;5015855;28;20049;-55
2022/12/08 00:24:46;;;;;;;16.57;8.27;;;;;;;8.13;100.00;100911.88;5015986;28;20334;-52
2022/12/08 00:27:14;;;;;;;14.85;9.30;;;;;;;8.27;100.00;100912.94;5015683;28;20034;-55
2022/12/08 00:29:42;;;;;;;17.63;9.82;;;;;;;8.16;100.00;100908.84;5015631;28;20046;-50
2022/12/08 00:32:08;;;;;;;25.20;12.38;;;;;;;8.16;100.00;100911.50;5014499;28;20117;-51
2022/12/08 00:34:33;;;;;;;27.48;12.90;;;;;;;8.04;100.00;100902.25;5016027;28;20033;-56
2022/12/08 00:36:59;;;;;;;34.40;14.70;;;;;;;7.83;100.00;100898.38;5015443;28;20057;-48
2022/12/08 00:39:25;;;;;;;22.63;13.68;;;;;;;7.95;100.00;100888.16;5015708;28;20041;-51
2022/12/08 00:44:35;;;;;;;27.52;15.50;;;;;;;8.10;100.00;100890.06;5013765;28;20268;-54
2022/12/08 00:47:01;;;;;;;29.08;14.18;;;;;;;7.91;100.00;100894.84;5015470;28;20065;-54
2022/12/08 00:49:26;;;;;;;27.33;15.17;;;;;;;7.95;100.00;100887.34;5015728;28;20045;-52
2022/12/08 00:51:52;;;;;;;28.73;14.93;;;;;;;7.90;100.00;100871.88;5015313;28;20268;-54
2022/12/08 00:54:18;;;;;;;31.53;16.77;;;;;;;7.92;100.00;100874.38;5015620;28;20065;-48
2022/12/08 00:56:45;;;;;;;33.95;16.02;;;;;;;8.03;100.00;100874.81;5015447;28;20034;-54
2022/12/08 00:59:10;;;;;;;30.10;14.98;;;;;;;7.84;100.00;100870.78;5013417;28;20057;-52
2022/12/08 01:01:37;;;;;;;36.88;16.77;;;;;;;8.01;100.00;100863.50;5014970;28;20081;-54
2022/12/08 01:04:07;;;;;;;32.70;18.07;;;;;;;8.02;100.00;100873.16;5015244;28;20030;-49
2022/12/08 01:06:34;;;;;;;32.63;16.52;;;;;;;8.25;100.00;100864.31;5014412;28;20035;-54
2022/12/08 01:09:05;;;;;;;31.65;16.35;;;;;;;8.51;100.00;100856.94;5015423;28;20034;-53
2022/12/08 01:11:30;;;;;;;30.65;15.50;;;;;;;8.43;100.00;100871.19;5013948;28;20034;-53
2022/12/08 01:13:56;;;;;;;31.00;15.73;;;;;;;8.35;100.00;100852.56;5015406;28;20105;-54
2022/12/08 01:16:24;;;;;;;21.70;11.80;;;;;;;8.24;100.00;100853.84;5015001;28;20061;-53
2022/12/08 01:18:50;;;;;;;31.27;16.15;;;;;;;7.92;100.00;100850.44;5014035;28;20057;-52
2022/12/08 01:21:16;;;;;;;32.23;15.53;;;;;;;7.89;100.00;100855.09;5015100;28;20037;-53
2022/12/08 01:23:42;;;;;;;23.92;12.23;;;;;;;7.63;100.00;100849.28;5015236;28;20042;-54
2022/12/08 01:26:10;;;;;;;27.80;14.30;;;;;;;8.13;100.00;100841.75;5015041;28;20049;-56
2022/12/08 01:28:36;;;;;;;31.13;15.25;;;;;;;7.84;100.00;100844.16;5014423;28;20260;-50
2022/12/08 01:31:02;;;;;;;26.58;14.38;;;;;;;7.80;100.00;100842.84;4998236;28;20047;-54
2022/12/08 01:33:28;;;;;;;34.05;15.57;;;;;;;7.77;100.00;100843.19;4996615;28;20050;-54
2022/12/08 01:35:54;;;;;;;26.90;13.82;;;;;;;7.72;100.00;100842.91;4996938;28;20066;-54
2022/12/08 01:38:21;;;;;;;26.15;14.65;;;;;;;7.84;100.00;100844.16;5000229;28;20062;-53
2022/12/08 01:40:47;;;;;;;25.40;13.82;;;;;;;7.81;100.00;100849.81;5000450;28;20098;-54
2022/12/08 01:43:18;;;;;;;30.30;14.00;;;;;;;7.64;100.00;100837.63;5000784;28;20038;-53
2022/12/08 01:45:44;;;;;;;29.98;15.00;;;;;;;7.94;100.00;100841.22;4996596;28;20066;-54
2022/12/08 01:48:17;;;;;;;30.30;15.15;;;;;;;7.80;100.00;100842.03;4997684;28;20042;-51
2022/12/08 01:50:45;;;;;;;27.08;12.18;;;;;;;7.84;100.00;100846.81;5000337;28;20045;-49
2022/12/08 01:53:25;;;;;;;33.33;13.40;;;;;;;8.07;100.00;100840.63;5001464;28;20035;-55
2022/12/08 01:56:12;;;;;;;21.95;11.13;;;;;;;7.65;100.00;100839.28;4997106;28;20034;-53
2022/12/08 01:58:42;;;;;;;28.23;12.55;;;;;;;7.95;100.00;100837.56;4996221;28;20038;-53
2022/12/08 02:01:09;;;;;;;24.90;12.90;;;;;;;8.02;100.00;100835.88;4997101;28;20046;-54
2022/12/08 02:03:50;;;;;;;25.25;11.85;;;;;;;7.97;100.00;100834.75;4996495;28;20065;-51
2022/12/08 02:06:17;;;;;;;23.02;10.88;;;;;;;8.01;100.00;100831.53;5001325;28;20066;-55
2022/12/08 02:08:44;;;;;;;21.67;9.63;;;;;;;7.97;100.00;100830.25;4995085;28;20038;-54
2022/12/08 02:11:11;;;;;;;16.40;9.50;;;;;;;7.91;100.00;100822.94;4997446;28;20030;-54
2022/12/08 02:13:37;;;;;;;22.27;9.93;;;;;;;8.18;100.00;100815.41;4996552;28;20035;-54
2022/12/08 02:16:07;;;;;;;19.63;8.57;;;;;;;8.04;100.00;100811.69;4998642;28;20062;-55
2022/12/08 02:18:57;;;;;;;21.17;8.55;;;;;;;7.96;100.00;100819.75;4997504;28;20093;-54
2022/12/08 02:21:54;;;;;;;21.85;8.60;;;;;;;8.05;100.00;100813.34;4994968;28;20129;-53
2022/12/08 02:24:35;;;;;;;15.75;7.00;;;;;;;7.88;100.00;100813.50;4988121;28;20042;-52
2022/12/08 02:27:13;;;;;;;19.58;8.07;;;;;;;8.35;100.00;100817.94;4998839;28;20107;-53
2022/12/08 02:30:03;;;;;;;17.98;7.00;;;;;;;8.00;100.00;100807.75;5001399;28;20106;-54
2022/12/08 02:32:56;;;;;;;18.40;6.93;;;;;;;7.93;100.00;100814.81;5011979;28;20065;-55
2022/12/08 02:35:36;;;;;;;13.90;6.38;;;;;;;7.94;100.00;100817.25;5013061;28;20053;-56
2022/12/08 02:38:26;;;;;;;14.27;7.32;;;;;;;7.84;100.00;100801.56;5012662;28;20038;-55
2022/12/08 02:41:19;;;;;;;20.65;7.07;;;;;;;7.95;100.00;100800.28;5011457;28;20046;-54
2022/12/08 02:44:12;;;;;;;16.02;6.60;;;;;;;8.27;100.00;100792.19;5011761;28;20089;-52
2022/12/08 02:46:44;;;;;;;15.65;7.00;;;;;;;8.30;100.00;100797.16;4985866;28;20042;-53
2022/12/08 02:49:12;;;;;;;9.75;5.65;;;;;;;7.70;100.00;100797.00;5013183;28;20037;-54
2022/12/08 02:51:37;;;;;;;14.70;6.30;;;;;;;8.06;100.00;100787.56;5012836;28;20026;-54
2022/12/08 02:54:03;;;;;;;12.80;6.53;;;;;;;8.23;100.00;100788.22;5011519;28;20045;-53
2022/12/08 02:56:40;;;;;;;9.75;5.43;;;;;;;7.97;100.00;100789.47;5013466;28;20106;-51
2022/12/08 02:59:09;;;;;;;10.30;5.57;;;;;;;8.03;100.00;100788.75;4996028;28;20047;-52
2022/12/08 03:02:13;;;;;;;13.63;5.28;;;;;;;7.96;100.00;100777.16;5019466;28;20114;-54
2022/12/08 03:05:04;;;;;;;9.35;4.68;;;;;;;8.28;100.00;100772.53;5018548;28;20026;-54
2022/12/08 03:07:47;;;;;;;15.32;4.82;;;;;;;8.20;100.00;100769.94;5017740;28;20132;-51
2022/12/08 03:10:28;;;;;;;10.85;4.43;;;;;;;7.85;100.00;100776.59;5017647;28;20048;-57
2022/12/08 03:13:19;;;;;;;9.98;5.32;;;;;;;7.66;100.00;100774.41;5019476;28;20102;-51
2022/12/08 03:15:49;;;;;;;8.77;4.25;;;;;;;8.00;100.00;100775.78;5018811;28;20061;-52
2022/12/08 03:18:18;;;;;;;14.85;5.30;;;;;;;8.16;100.00;100761.47;5019438;28;20026;-52
2022/12/08 03:20:46;;;;;;;11.27;4.43;;;;;;;8.15;100.00;100754.50;5018989;28;20038;-53
2022/12/08 03:23:15;;;;;;;7.80;4.65;;;;;;;8.14;100.00;100758.19;5017093;28;20057;-55
2022/12/08 03:25:50;;;;;;;10.82;4.72;;;;;;;8.05;100.00;100746.75;5019386;28;20065;-54
2022/12/08 03:28:16;;;;;;;9.88;4.68;;;;;;;8.04;100.00;100755.75;5017517;28;20026;-56
2022/12/08 03:30:44;;;;;;;9.87;4.83;;;;;;;8.40;100.00;100754.25;5017832;28;20050;-55
2022/12/08 03:33:25;;;;;;;7.10;3.70;;;;;;;8.38;100.00;100753.59;5018125;28;20042;-55
2022/12/08 03:35:52;;;;;;;6.07;3.95;;;;;;;8.07;100.00;100760.72;5018830;28;20044;-55
2022/12/08 03:38:18;;;;;;;8.73;3.95;;;;;;;7.83;100.00;100748.47;5018619;28;20030;-54
2022/12/08 03:41:17;;;;;;;8.70;4.63;;;;;;;7.95;100.00;100741.69;5019365;28;20038;-52
2022/12/08 03:43:29;;;;;;;6.93;4.30;;;;;;;7.58;100.00;100733.50;5017632;28;20038;-54
2022/12/08 03:45:55;;;;;;;12.07;5.13;;;;;;;7.75;100.00;100736.06;5001926;28;20065;-57
2022/12/08 03:48:20;;;;;;;10.67;5.20;;;;;;;7.88;100.00;100732.78;5019306;28;20046;-54
2022/12/08 03:50:46;;;;;;;9.53;5.33;;;;;;;7.94;100.00;100731.25;5018896;28;20286;-53
2022/12/08 03:53:11;;;;;;;11.23;5.40;;;;;;;7.98;100.00;100728.03;5019407;28;20041;-55
2022/12/08 03:55:37;;;;;;;10.32;6.00;;;;;;;7.93;100.00;100726.91;5018425;28;20049;-56
2022/12/08 03:58:02;;;;;;;8.20;5.57;;;;;;;8.02;100.00;100717.84;5019314;28;20038;-53
2022/12/08 04:00:28;;;;;;;11.30;6.00;;;;;;;7.89;100.00;100719.31;5019134;28;20102;-54
2022/12/08 04:02:53;;;;;;;10.00;5.43;;;;;;;8.10;100.00;100719.59;5019011;28;20299;-53
2022/12/08 04:05:19;;;;;;;6.83;4.30;;;;;;;7.62;100.00;100711.91;5018951;28;20030;-54
2022/12/08 04:07:44;;;;;;;11.85;5.07;;;;;;;8.10;100.00;100709.78;5018386;28;20173;-56
2022/12/08 04:10:10;;;;;;;7.30;4.13;;;;;;;7.59;100.00;100711.22;5019021;28;20034;-52
2022/12/08 04:12:35;;;;;;;8.10;4.50;;;;;;;7.99;100.00;100711.06;5015770;28;20042;-55
2022/12/08 04:15:00;;;;;;;5.87;3.70;;;;;;;7.84;100.00;100715.50;5015957;28;20079;-53
2022/12/08 04:17:26;;;;;;;8.07;4.33;;;;;;;8.00;100.00;100711.88;5015651;28;20034;-55
2022/12/08 04:19:51;;;;;;;19.30;4.93;;;;;;;7.79;100.00;100707.25;5015891;28;20042;-56
2022/12/08 04:22:17;;;;;;;12.63;4.30;;;;;;;8.09;100.00;100705.47;5015051;28;20062;-56
2022/12/08 04:24:42;;;;;;;12.13;5.33;;;;;;;7.97;100.00;100710.41;5013368;28;20041;-53
2022/12/08 04:27:08;;;;;;;26.02;6.18;;;;;;;7.87;100.00;100709.81;5015349;28;20069;-56
2022/12/08 04:29:33;;;;;;;14.17;3.90;;;;;;;7.67;100.00;100709.50;5014918;28;20084;-56
2022/12/08 04:31:59;;;;;;;9.90;3.07;;;;;;;7.46;100.00;100708.34;5015605;28;20038;-54
2022/12/08 04:34:24;;;;;;;13.23;3.10;;;;;;;7.72;100.00;100696.47;5015173;28;20087;-57
2022/12/08 04:36:50;;;;;;;5.82;1.42;;;;;;;7.38;100.00;100690.59;5015290;28;20026;-57
2022/12/08 04:39:15;;;;;;;10.13;1.57;;;;;;;7.51;100.00;100699.84;5015481;28;20042;-55
2022/12/08 04:45:31;;;;;;;4.55;0.68;;;;;;;7.76;100.00;100673.81;5012218;28;20193;-54
2022/12/08 04:47:59;;;;;;;1.45;0.68;;;;;;;7.96;100.00;100674.13;5014485;28;20065;-55
2022/12/08 04:50:24;;;;;;;1.48;0.60;;;;;;;8.13;100.00;100682.78;4998534;28;20045;-53
2022/12/08 04:52:50;;;;;;;2.77;0.90;;;;;;;7.74;100.00;100674.00;5015256;28;20054;-53
2022/12/08 04:55:16;;;;;;;1.23;0.60;;;;;;;7.94;100.00;100686.78;5012047;28;20030;-54
2022/12/08 04:57:43;;;;;;;3.60;0.70;;;;;;;7.65;100.00;100690.22;5015197;28;20034;-53
2022/12/08 05:00:09;;;;;;;5.57;0.90;;;;;;;7.73;100.00;100692.81;5015234;28;20074;-56
2022/12/08 05:02:35;;;;;;;4.55;1.10;;;;;;;7.79;100.00;100681.44;5015306;28;20037;-57
2022/12/08 05:05:01;;;;;;;3.42;1.25;;;;;;;7.63;100.00;100682.41;5015335;28;20046;-51
2022/12/08 05:07:26;;;;;;;4.68;1.20;;;;;;;7.81;100.00;100684.75;5013303;28;20030;-53
2022/12/08 05:09:52;;;;;;;2.57;1.60;;;;;;;7.77;100.00;100685.31;5013089;28;20062;-55
2022/12/08 05:12:17;;;;;;;2.80;1.70;;;;;;;7.63;100.00;100686.94;5015108;28;20034;-56
2022/12/08 05:14:43;;;;;;;7.27;2.07;;;;;;;7.31;100.00;100681.69;5014761;28;20276;-56
2022/12/08 05:17:08;;;;;;;3.77;1.60;;;;;;;7.24;100.00;100686.88;5015218;28;20041;-54
2022/12/08 05:19:34;;;;;;;3.83;2.00;;;;;;;7.38;100.00;100679.13;5014881;28;20066;-56
2022/12/08 05:21:59;;;;;;;5.15;1.80;;;;;;;7.51;100.00;100674.03;5015184;28;20552;-54
2022/12/08 05:24:25;;;;;;;4.50;1.80;;;;;;;7.37;100.00;100680.97;5010710;28;20041;-54
2022/12/08 05:26:50;;;;;;;9.03;2.23;;;;;;;7.65;100.00;100679.59;5014614;28;20338;-55
2022/12/08 05:29:16;;;;;;;5.37;1.77;;;;;;;7.75;100.00;100675.66;5014632;28;20038;-55
2022/12/08 05:31:42;;;;;;;1.77;1.30;;;;;;;7.83;100.00;100676.59;5014987;28;20030;-56
2022/12/08 05:34:07;;;;;;;5.33;1.90;;;;;;;7.68;100.00;100676.56;5012032;28;20077;-55
2022/12/08 05:36:33;;;;;;;7.13;1.40;;;;;;;7.91;100.00;100665.03;5013460;28;20040;-55
2022/12/08 05:38:58;;;;;;;5.47;1.93;;;;;;;8.15;100.00;100674.59;4997243;28;20038;-55
2022/12/08 05:41:24;;;;;;;3.73;1.33;;;;;;;7.71;100.00;100673.53;4997159;28;20280;-55
2022/12/08 05:43:49;;;;;;;5.63;1.50;;;;;;;7.87;100.00;100673.38;5014143;28;20034;-54
2022/12/08 05:46:15;;;;;;;7.57;1.83;;;;;;;7.58;100.00;100674.16;5014053;28;20049;-56
2022/12/08 05:48:41;;;;;;;5.00;1.85;;;;;;;7.68;100.00;100669.38;5014319;28;20259;-57
2022/12/08 05:51:18;;;;;;;6.18;2.05;;;;;;;7.41;100.00;100668.16;5014233;28;20054;-50
2022/12/08 05:53:45;;;;;;;7.13;2.20;;;;;;;7.37;100.00;100666.81;4998224;28;20069;-53
2022/12/08 05:56:11;;;;;;;6.60;2.10;;;;;;;7.68;100.00;100658.75;5014213;28;20030;-57
2022/12/08 05:58:36;;;;;;;7.30;2.30;;;;;;;7.39;100.00;100657.66;4996757;28;20046;-55
2022/12/08 06:01:02;;;;;;;3.77;1.70;;;;;;;7.67;100.00;100646.44;5013333;28;20030;-56
2022/12/08 06:03:28;;;;;;;6.63;1.73;;;;;;;7.70;100.00;100645.25;5014025;28;20058;-54
2022/12/08 06:05:54;;;;;;;3.90;1.63;;;;;;;7.70;100.00;100639.94;5012347;28;20497;-55
2022/12/08 06:08:19;;;;;;;6.87;1.50;;;;;;;7.48;100.00;100639.81;5014051;28;20054;-55
2022/12/08 06:10:45;;;;;;;3.30;1.70;;;;;;;7.42;100.00;100648.50;5013593;28;20039;-56
2022/12/08 06:13:11;;;;;;;4.90;1.88;;;;;;;7.47;100.00;100646.94;4984855;28;20284;-54
2022/12/08 06:15:38;;;;;;;1.77;1.02;;;;;;;7.62;100.00;100642.69;5013212;28;20042;-55
2022/12/08 06:18:04;;;;;;;4.38;1.42;;;;;;;7.61;100.00;100644.50;5013554;28;20035;-55
2022/12/08 06:20:31;;;;;;;6.28;1.63;;;;;;;7.40;100.00;100653.19;5013211;28;20034;-54
2022/12/08 06:22:57;;;;;;;3.17;1.73;;;;;;;7.35;100.00;100656.38;5013383;28;20058;-55
2022/12/08 06:25:23;;;;;;;8.87;2.00;;;;;;;7.66;100.00;100652.78;5013213;28;20038;-52
2022/12/08 06:27:49;;;;;;;3.47;1.88;;;;;;;7.51;100.00;100660.72;5012764;28;20038;-55
2022/12/08 06:30:15;;;;;;;4.07;1.93;;;;;;;7.52;100.00;100664.22;5012623;28;20050;-55
2022/12/08 06:32:40;;;;;;;2.95;1.83;;;;;;;7.67;100.00;100658.94;5012135;28;20038;-50
2022/12/08 06:35:06;;;;;;;4.87;2.03;;;;;;;7.74;100.00;100667.84;5013209;28;20042;-54
2022/12/08 06:37:32;;;;;;;;;;;;;;;7.60;100.00;100669.47;5013497;28;20054;-52
2022/12/08 06:39:58;;;;;;;3.03;1.83;;;;;;;7.82;100.00;100665.09;5013123;28;19909;-55
2022/12/08 06:45:08;;;;;;;6.53;2.20;;;;;;;7.85;100.00;100670.09;5012195;28;20041;-55
2022/12/08 06:47:34;;;;;;;;;;;;;;;7.98;100.00;100665.94;5004069;28;20047;-54
2022/12/08 06:49:59;;;;;;;7.93;1.63;;;;;;;8.07;100.00;100667.50;5007573;28;19938;-54
2022/12/08 06:52:25;;;;;;;5.50;2.47;;;;;;;8.03;100.00;100667.06;5010031;28;20030;-57
2022/12/08 06:54:50;;;;;;;6.23;3.00;;;;;;;7.79;100.00;100670.78;5012858;28;20034;-56
2022/12/08 06:57:17;;;;;;;4.63;2.90;;;;;;;8.02;100.00;100675.22;5013163;28;20068;-52
2022/12/08 06:59:43;;;;;;;8.80;2.63;;;;;;;7.81;100.00;100675.94;5011958;28;20042;-52
2022/12/08 07:02:09;;;;;;;6.67;2.87;;;;;;;8.01;100.00;100678.91;5010593;28;20085;-54
2022/12/08 07:04:36;;;;;;;6.30;2.90;;;;;;;8.21;100.00;100683.69;5012671;28;20034;-55
2022/12/08 07:07:02;;;;;;;5.43;2.97;;;;;;;8.11;100.00;100687.47;5012266;28;20038;-50
2022/12/08 07:09:28;;;;;;;11.10;3.10;;;;;;;8.24;100.00;100688.66;5012344;28;20068;-56
2022/12/08 07:11:53;;;;;;;6.07;3.20;;;;;;;8.32;100.00;100684.06;5012981;28;20127;-51
2022/12/08 07:14:22;;;;;;;8.80;3.67;;;;;;;8.16;100.00;100693.06;5012705;28;20094;-55
2022/12/08 07:16:47;;;;;;;6.18;2.50;;;;;;;7.83;100.00;100685.38;5008345;28;20041;-55
2022/12/08 07:19:13;;;;;;;10.27;3.10;;;;;;;7.66;100.00;100691.88;5012520;28;20060;-55
2022/12/08 07:21:39;;;;;;;10.00;2.70;;;;;;;7.27;100.00;100696.34;5012422;28;20034;-54
2022/12/08 07:24:05;;;;;;;11.03;2.47;;;;;;;7.35;100.00;100688.31;5012170;28;20061;-55
2022/12/08 07:26:30;;;;;;;3.03;1.60;;;;;;;7.24;100.00;100692.19;5012347;28;20034;-55
2022/12/08 07:28:56;;;;;;;5.37;2.17;;;;;;;7.02;100.00;100691.16;5012686;28;20283;-53
2022/12/08 07:31:23;;;;;;;3.63;1.60;;;;;;;7.15;100.00;100686.09;5012592;28;20268;-52
2022/12/08 07:33:50;;;;;;;2.78;1.67;;;;;;;7.24;100.00;100678.91;5010438;28;20062;-55
2022/12/08 07:36:15;;;;;;;3.20;2.03;;;;;;;7.22;100.00;100680.06;5012843;28;20177;-54
2022/12/08 07:38:41;;;;;;;3.30;1.73;;;;;;;7.40;100.00;100677.94;4976818;28;20047;-52
2022/12/08 07:41:17;;;;;;;3.30;1.58;;;;;;;7.40;100.00;100674.47;5012311;28;20049;-54
2022/12/08 07:43:42;;;;;;;5.65;1.52;;;;;;;7.54;100.00;100663.03;5010949;28;20038;-55
2022/12/08 07:46:12;;;;;;;4.38;2.38;;;;;;;7.53;100.00;100661.38;5012432;28;20045;-56
2022/12/08 07:48:38;;;;;;;5.28;1.92;;;;;;;7.49;100.00;100664.56;5016032;28;20046;-55
2022/12/08 07:51:04;;;;;;;3.07;1.70;;;;;;;7.39;100.00;100660.31;5015949;28;20053;-54
2022/12/08 07:53:30;;;;;;;9.25;1.95;;;;;;;7.35;100.00;100667.03;5016164;28;20030;-57
2022/12/08 07:55:56;;;;;;;3.60;2.00;;;;;;;7.32;100.00;100662.88;5013842;28;20063;-52
2022/12/08 07:58:22;;;;;;;3.47;1.73;;;;;;;7.32;100.00;100662.88;5015327;28;20038;-53
2022/12/08 08:00:48;;;;;;;9.23;2.00;;;;;;;7.46;100.00;100661.25;5013238;28;20034;-53
2022/12/08 08:03:14;;;;;;;3.85;2.03;;;;;;;7.16;100.00;100660.34;5015828;28;20094;-55
2022/12/08 08:05:39;;;;;;;3.27;1.83;;;;;;;6.99;100.00;100649.81;5015945;28;20038;-54
2022/12/08 08:08:05;;;;;;;5.35;2.17;;;;;;;7.00;100.00;100653.28;5015859;28;20042;-57
2022/12/08 08:10:31;;;;;;;3.10;1.92;;;;;;;7.01;100.00;100657.59;5015610;28;20061;-56
2022/12/08 08:12:59;;;;;;;3.60;1.83;;;;;;;7.21;100.00;100662.47;5013461;28;20030;-56
2022/12/08 08:15:25;;;;;;;5.63;1.90;;;;;;;6.96;100.00;100660.81;5013685;28;20056;-54
2022/12/08 08:17:50;;;;;;;4.00;1.87;;;;;;;7.32;100.00;100665.53;5015723;28;20042;-54
2022/12/08 08:20:17;;;;;;;3.87;1.93;;;;;;;7.14;100.00;100676.47;5015582;28;20272;-55
2022/12/08 08:22:45;;;;;;;3.45;1.65;;;;;;;7.38;100.00;100671.97;5015161;28;20287;-52
2022/12/08 08:25:11;;;;;;;4.88;1.50;;;;;;;7.03;100.00;100675.03;5015209;28;20042;-54
2022/12/08 08:27:37;;;;;;;4.93;2.17;;;;;;;7.26;100.00;100668.91;5015868;28;20070;-53
2022/12/08 08:30:03;;;;;;;2.90;1.70;;;;;;;7.26;100.00;100676.88;5014514;28;20050;-51
2022/12/08 08:32:32;;;;;;;3.42;1.67;;;;;;;7.06;100.00;100675.69;5006808;28;20292;-55
2022/12/08 08:34:58;;;;;;;3.58;1.88;;;;;;;7.35;100.00;100671.50;5013215;28;20503;-54
2022/12/08 08:37:24;;;;;;;2.65;1.15;;;;;;;6.49;100.00;100675.00;5010575;28;20018;-55
2022/12/08 08:39:49;;;;;;;2.58;1.42;;;;;;;6.81;100.00;100683.81;5008335;28;20039;-55
2022/12/08 08:42:14;;;;;;;3.37;1.23;;;;;;;6.82;100.00;100680.16;5008731;28;20041;-50
2022/12/08 08:44:40;;;;;;;2.90;1.25;;;;;;;6.68;100.00;100685.19;5014085;28;20045;-57
2022/12/08 08:47:05;;;;;;;1.87;1.10;;;;;;;7.00;100.00;100683.38;5012959;28;20035;-55
2022/12/08 08:49:31;;;;;;;3.38;1.80;;;;;;;6.94;100.00;100680.59;5014242;28;20113;-52
2022/12/08 08:51:56;;;;;;;1.30;0.93;;;;;;;7.02;100.00;100681.38;5011614;28;20041;-55
2022/12/08 08:54:22;;;;;;;3.55;1.20;;;;;;;6.91;100.00;100678.28;5012812;28;20161;-52
2022/12/08 08:56:48;;;;;;;1.80;1.00;;;;;;;7.08;100.00;100668.38;5012430;28;20119;-55
2022/12/08 08:59:13;;;;;;;1.43;1.10;;;;;;;7.08;100.00;100673.69;5011401;28;20045;-56
2022/12/08 09:01:39;;;;;;;2.92;1.38;;;;;;;7.26;100.00;100676.88;5013878;28;20030;-53
2022/12/08 09:04:04;;;;;;;5.20;1.30;;;;;;;7.41;100.00;100674.28;5012725;28;20110;-53
2022/12/08 09:06:30;;;;;;;4.68;1.20;;;;;;;7.67;100.00;100682.91;5013423;28;20034;-55
2022/12/08 09:08:56;;;;;;;2.65;1.50;;;;;;;7.89;100.00;100682.03;5012199;28;20105;-55
2022/12/08 09:11:22;;;;;;;3.43;1.70;;;;;;;7.48;100.00;100674.41;5013260;28;20034;-54
2022/12/08 09:13:49;;;;;;;6.75;1.98;;;;;;;7.68;100.00;100680.03;5012463;28;20148;-52
2022/12/08 09:16:16;;;;;;;4.55;2.00;;;;;;;7.67;100.00;100675.72;5011637;28;20038;-54
2022/12/08 09:18:42;;;;;;;3.58;1.83;;;;;;;7.63;100.00;100677.09;5012760;28;20058;-52
2022/12/08 09:21:12;;;;;;;3.43;1.80;;;;;;;7.44;100.00;100678.44;5013490;28;20046;-53
2022/12/08 09:23:37;;;;;;;5.28;2.50;;;;;;;7.46;100.00;100673.75;5010876;28;20090;-55
2022/12/08 09:26:04;;;;;;;4.15;2.50;;;;;;;7.50;100.00;100677.69;5013193;28;20045;-54
2022/12/08 09:28:31;;;;;;;5.45;3.30;;;;;;;7.79;100.00;100670.78;5012140;28;20042;-52
2022/12/08 09:30:56;;;;;;;6.23;3.27;;;;;;;7.74;100.00;100679.34;5012910;28;20382;-50
2022/12/08 09:33:21;;;;;;;6.13;3.23;;;;;;;7.62;100.00;100679.94;5011979;28;20295;-54
2022/12/08 09:35:47;;;;;;;4.83;3.10;;;;;;;7.76;100.00;100681.81;4995470;28;20042;-55
2022/12/08 09:38:12;;;;;;;6.07;3.13;;;;;;;7.79;100.00;100678.78;5011757;28;20026;-54
2022/12/08 09:40:49;;;;;;;8.25;3.55;;;;;;;7.97;100.00;100680.28;5012922;28;20034;-57
2022/12/08 09:43:50;;;;;;;7.15;3.70;;;;;;;8.01;100.00;100686.88;5012281;28;20034;-55
2022/12/08 09:46:17;;;;;;;7.45;4.05;;;;;;;8.14;100.00;100687.09;5011902;28;20030;-51
2022/12/08 09:48:56;;;;;;;6.88;3.97;;;;;;;8.11;100.00;100684.81;5013209;28;20049;-55
2022/12/08 09:51:30;;;;;;;8.10;3.90;;;;;;;7.91;100.00;100681.81;5009623;28;20044;-52
2022/12/08 09:54:07;;;;;;;7.68;4.10;;;;;;;8.43;100.00;100682.75;5012954;28;20058;-53
2022/12/08 09:56:35;;;;;;;7.82;4.05;;;;;;;8.68;100.00;100674.50;5010213;28;20061;-55
2022/12/08 09:59:14;;;;;;;7.03;4.18;;;;;;;8.37;100.00;100678.19;5012052;28;20054;-56
2022/12/08 10:01:40;;;;;;;8.63;4.50;;;;;;;8.81;100.00;100673.81;4992895;28;20041;-54
2022/12/08 10:04:30;;;;;;;9.10;5.03;;;;;;;8.64;100.00;100683.88;4995788;28;20042;-56
2022/12/08 10:07:15;;;;;;;8.15;4.95;;;;;;;8.72;100.00;100678.44;5011376;28;20086;-54
2022/12/08 10:09:57;;;;;;;9.98;5.13;;;;;;;8.71;100.00;100674.09;5009725;28;20034;-53
2022/12/08 10:12:25;;;;;;;10.02;4.97;;;;;;;8.60;100.00;100671.94;5013141;28;20065;-54
2022/12/08 10:14:56;;;;;;;8.40;4.60;;;;;;;8.50;100.00;100666.91;5011840;28;20034;-55
2022/12/08 10:17:30;;;;;;;8.73;4.70;;;;;;;8.50;100.00;100672.22;5010552;28;20034;-55
2022/12/08 10:20:09;;;;;;;7.72;5.00;;;;;;;8.29;100.00;100664.94;5009402;28;20030;-52
2022/12/08 10:22:35;;;;;;;10.90;5.15;;;;;;;8.58;100.00;100655.31;5011055;28;20038;-55
2022/12/08 10:25:26;;;;;;;11.47;4.93;;;;;;;8.40;100.00;100656.50;5011716;28;20030;-54
2022/12/08 10:27:53;;;;;;;7.72;4.72;;;;;;;8.07;100.00;100648.84;4999418;28;20047;-55
2022/12/08 10:30:19;;;;;;;;;;;;;;;8.32;100.00;100643.28;5012484;28;20070;-55
2022/12/08 10:32:48;;;;;;;10.82;4.50;;;;;;;9.17;100.00;100648.13;5012073;28;20470;-53
2022/12/08 10:35:16;;;;;;;10.35;5.03;;;;;;;9.44;100.00;100635.00;5013165;28;20038;-54
2022/12/08 10:37:56;;;;;;;8.13;4.68;;;;;;;9.97;100.00;100639.91;5011121;28;20027;-54
2022/12/08 10:40:23;;;;;;;8.60;5.45;;;;;;;10.13;100.00;100649.44;5010922;28;20034;-53
2022/12/08 10:42:55;;;;;;;7.43;4.40;;;;;;;10.54;100.00;100649.69;5010916;28;20034;-53
2022/12/08 10:45:37;;;;;;;11.43;4.90;;;;;;;9.53;100.00;100644.56;5013128;28;20034;-50
2022/12/08 10:48:08;;;;;;;9.18;4.47;;;;;;;10.46;100.00;100643.50;5011191;28;20043;-51
2022/12/08 10:50:53;;;;;;;9.27;4.93;;;;;;;10.42;100.00;100644.91;5008705;28;20044;-51
2022/12/08 10:53:27;;;;;;;8.00;4.78;;;;;;;11.36;100.00;100646.16;5004831;28;20085;-54
2022/12/08 10:56:02;;;;;;;6.00;3.80;;;;;;;10.33;100.00;100640.72;5006026;28;20038;-49
2022/12/08 10:58:34;;;;;;;7.53;4.07;;;;;;;10.48;100.00;100640.59;5005129;28;20039;-54
2022/12/08 11:01:09;;;;;;;6.50;3.40;;;;;;;11.05;100.00;100646.53;5002129;28;20039;-55
2022/12/08 11:03:44;;;;;;;4.55;2.50;;;;;;;10.60;100.00;100643.53;5005837;28;20030;-52
2022/12/08 11:06:22;;;;;;;5.13;2.33;;;;;;;10.60;100.00;100648.88;5011358;28;20049;-48
2022/12/08 11:08:54;;;;;;;3.22;1.85;;;;;;;10.91;100.00;100647.53;5012316;28;20073;-54
2022/12/08 11:11:21;;;;;;;4.15;2.13;;;;;;;10.76;100.00;100647.72;5009262;28;20030;-52
2022/12/08 11:13:50;;;;;;;3.00;1.80;;;;;;;10.72;100.00;100652.63;5012680;28;20061;-52
2022/12/08 11:16:17;;;;;;;3.15;1.75;;;;;;;10.57;100.00;100649.28;5010141;28;20038;-49
2022/12/08 11:18:53;;;;;;;4.78;1.77;;;;;;;9.67;100.00;100639.28;5012515;28;20046;-53
2022/12/08 11:21:19;;;;;;;4.00;1.70;;;;;;;10.82;100.00;100646.91;5012012;28;20061;-53
2022/12/08 11:23:49;;;;;;;7.13;2.47;;;;;;;10.68;100.00;100646.03;5015578;28;20077;-54
2022/12/08 11:26:26;;;;;;;3.40;1.83;;;;;;;9.72;100.00;100637.69;5015977;28;20042;-50
2022/12/08 11:28:52;;;;;;;8.30;2.60;;;;;;;9.47;100.00;100643.47;5014522;28;20038;-53
2022/12/08 11:31:26;;;;;;;6.67;2.40;;;;;;;10.31;100.00;100642.75;5015793;28;20031;-51
2022/12/08 11:33:51;;;;;;;3.70;1.60;;;;;;;10.13;100.00;100643.31;4998452;28;20310;-50
2022/12/08 11:36:21;;;;;;;3.27;1.40;;;;;;;11.12;100.00;100641.19;5015973;28;20026;-53
2022/12/08 11:38:50;;;;;;;3.35;1.48;;;;;;;11.03;100.00;100632.53;5010449;28;20284;-51
2022/12/08 11:41:21;;;;;;;1.80;1.05;;;;;;;10.75;100.00;100633.50;5009329;28;20034;-52
2022/12/08 11:44:06;;;;;;;5.20;1.35;;;;;;;10.84;100.00;100638.66;5011710;28;20097;-51
2022/12/08 11:46:45;;;;;;;6.15;1.27;;;;;;;11.07;100.00;100632.97;5014620;28;20053;-51